sensor_id;sensor_type;location;lat;lon;timestamp;temperature;humidity
38726;DHT22;24474;48.906;8.808;2023-04-01T00:00:00;9.70;99.90
38726;DHT22;24474;48.906;8.808;2023-04-01T00:02:26;9.70;99.90
38726;DHT22;24474;48.906;8.808;2023-04-01T00:04:53;9.70;99.90
38726;DHT22;24474;48.906;8.808;2023-04-01T00:07:19;9.80;99.90
38726;DHT22;24474;48.906;8.808;2023-04-01T00:09:47;9.80;99.90
38726;DHT22;24474;48.906;8.808;2023-04-01T00:12:12;9.80;99.90
38726;DHT22;24474;48.906;8.808;2023-04-01T00:14:39;9.70;99.90
38726;DHT22;24474;48.906;8.808;2023-04-01T00:17:05;9.80;99.90
38726;DHT22;24474;48.906;8.808;2023-04-01T00:19:33;9.70;99.90
38726;DHT22;24474;48.906;8.808;2023-04-01T00:22:00;9.70;99.90
38726;DHT22;24474;48.906;8.808;2023-04-01T00:24:26;9.70;99.90
38726;DHT22;24474;48.906;8.808;2023-04-01T00:26:54;9.80;99.90
38726;DHT22;24474;48.906;8.808;2023-04-01T00:29:22;9.70;99.90
38726;DHT22;24474;48.906;8.808;2023-04-01T00:31:50;9.70;99.90
38726;DHT22;24474;48.906;8.808;2023-04-01T00:34:16;9.70;99.90
38726;DHT22;24474;48.906;8.808;2023-04-01T00:36:43;9.80;99.90
38726;DHT22;24474;48.906;8.808;2023-04-01T00:39:12;9.80;99.90
38726;DHT22;24474;48.906;8.808;2023-04-01T00:41:38;9.80;99.90
38726;DHT22;24474;48.906;8.808;2023-04-01T00:44:34;9.80;99.90
38726;DHT22;24474;48.906;8.808;2023-04-01T00:47:01;9.80;99.90
38726;DHT22;24474;48.906;8.808;2023-04-01T00:49:38;9.80;99.90
38726;DHT22;24474;48.906;8.808;2023-04-01T00:52:08;9.80;99.90
38726;DHT22;24474;48.906;8.808;2023-04-01T00:54:36;9.80;99.90
38726;DHT22;24474;48.906;8.808;2023-04-01T00:57:10;9.80;99.90
38726;DHT22;24474;48.906;8.808;2023-04-01T00:59:44;9.70;99.90
38726;DHT22;24474;48.906;8.808;2023-04-01T01:02:14;9.70;99.90
38726;DHT22;24474;48.906;8.808;2023-04-01T01:04:40;9.70;99.90
38726;DHT22;24474;48.906;8.808;2023-04-01T01:10:15;9.70;99.90
38726;DHT22;24474;48.906;8.808;2023-04-01T01:16:09;9.70;99.90
38726;DHT22;24474;48.906;8.808;2023-04-01T01:18:57;9.70;99.90
38726;DHT22;24474;48.906;8.808;2023-04-01T01:27:29;9.70;99.90
38726;DHT22;24474;48.906;8.808;2023-04-01T01:30:25;9.70;99.90
38726;DHT22;24474;48.906;8.808;2023-04-01T01:33:24;9.70;99.90
38726;DHT22;24474;48.906;8.808;2023-04-01T01:35:56;9.70;99.90
38726;DHT22;24474;48.906;8.808;2023-04-01T01:38:26;9.80;99.90
38726;DHT22;24474;48.906;8.808;2023-04-01T01:40:55;9.70;99.90
38726;DHT22;24474;48.906;8.808;2023-04-01T01:43:29;9.70;99.90
38726;DHT22;24474;48.906;8.808;2023-04-01T01:45:59;9.80;99.90
38726;DHT22;24474;48.906;8.808;2023-04-01T01:48:27;9.70;99.90
38726;DHT22;24474;48.906;8.808;2023-04-01T01:50:55;9.70;99.90
38726;DHT22;24474;48.906;8.808;2023-04-01T01:53:23;9.70;99.90
38726;DHT22;24474;48.906;8.808;2023-04-01T01:55:49;9.70;99.90
38726;DHT22;24474;48.906;8.808;2023-04-01T01:58:32;9.70;99.90
38726;DHT22;24474;48.906;8.808;2023-04-01T02:01:08;9.70;99.90
38726;DHT22;24474;48.906;8.808;2023-04-01T02:03:36;9.70;99.90
38726;DHT22;24474;48.906;8.808;2023-04-01T02:06:07;9.60;99.90
38726;DHT22;24474;48.906;8.808;2023-04-01T02:09:02;9.60;99.90
38726;DHT22;24474;48.906;8.808;2023-04-01T02:11:42;9.60;99.90
38726;DHT22;24474;48.906;8.808;2023-04-01T02:14:30;9.70;99.90
38726;DHT22;24474;48.906;8.808;2023-04-01T02:17:29;9.60;99.90
38726;DHT22;24474;48.906;8.808;2023-04-01T02:20:21;9.60;99.90
38726;DHT22;24474;48.906;8.808;2023-04-01T02:22:55;9.60;99.90
38726;DHT22;24474;48.906;8.808;2023-04-01T02:25:27;9.60;99.90
38726;DHT22;24474;48.906;8.808;2023-04-01T02:27:59;9.60;99.90
38726;DHT22;24474;48.906;8.808;2023-04-01T02:30:28;9.60;99.90
38726;DHT22;24474;48.906;8.808;2023-04-01T02:32:56;9.60;99.90
38726;DHT22;24474;48.906;8.808;2023-04-01T02:35:24;9.50;99.90
38726;DHT22;24474;48.906;8.808;2023-04-01T02:37:54;9.50;99.90
38726;DHT22;24474;48.906;8.808;2023-04-01T02:40:22;9.50;99.90
38726;DHT22;24474;48.906;8.808;2023-04-01T02:42:49;9.50;99.90
38726;DHT22;24474;48.906;8.808;2023-04-01T02:45:16;9.40;99.90
38726;DHT22;24474;48.906;8.808;2023-04-01T02:47:41;9.40;99.90
38726;DHT22;24474;48.906;8.808;2023-04-01T02:50:09;9.30;99.90
38726;DHT22;24474;48.906;8.808;2023-04-01T02:52:36;9.40;99.90
38726;DHT22;24474;48.906;8.808;2023-04-01T02:55:06;9.30;99.90
38726;DHT22;24474;48.906;8.808;2023-04-01T02:57:33;9.30;99.90
38726;DHT22;24474;48.906;8.808;2023-04-01T03:00:00;9.30;99.90
38726;DHT22;24474;48.906;8.808;2023-04-01T03:02:27;9.20;99.90
38726;DHT22;24474;48.906;8.808;2023-04-01T03:04:57;9.20;99.90
38726;DHT22;24474;48.906;8.808;2023-04-01T03:07:23;9.20;99.90
38726;DHT22;24474;48.906;8.808;2023-04-01T03:09:50;9.20;99.90
38726;DHT22;24474;48.906;8.808;2023-04-01T03:12:15;9.20;99.90
38726;DHT22;24474;48.906;8.808;2023-04-01T03:14:42;9.20;99.90
38726;DHT22;24474;48.906;8.808;2023-04-01T03:17:08;9.20;99.90
38726;DHT22;24474;48.906;8.808;2023-04-01T03:19:34;9.20;99.90
38726;DHT22;24474;48.906;8.808;2023-04-01T03:22:01;9.10;99.90
38726;DHT22;24474;48.906;8.808;2023-04-01T03:24:28;9.10;99.90
38726;DHT22;24474;48.906;8.808;2023-04-01T03:26:54;9.10;99.90
38726;DHT22;24474;48.906;8.808;2023-04-01T03:29:21;9.10;99.90
38726;DHT22;24474;48.906;8.808;2023-04-01T03:31:48;9.00;99.90
38726;DHT22;24474;48.906;8.808;2023-04-01T03:34:14;9.00;99.90
38726;DHT22;24474;48.906;8.808;2023-04-01T03:36:43;9.00;99.90
38726;DHT22;24474;48.906;8.808;2023-04-01T03:39:10;9.00;99.90
38726;DHT22;24474;48.906;8.808;2023-04-01T03:41:37;9.00;99.90
38726;DHT22;24474;48.906;8.808;2023-04-01T03:44:05;8.90;99.90
38726;DHT22;24474;48.906;8.808;2023-04-01T03:46:30;8.90;99.90
38726;DHT22;24474;48.906;8.808;2023-04-01T03:48:57;8.90;99.90
38726;DHT22;24474;48.906;8.808;2023-04-01T03:51:24;9.00;99.90
38726;DHT22;24474;48.906;8.808;2023-04-01T03:53:50;9.00;99.90
38726;DHT22;24474;48.906;8.808;2023-04-01T03:56:17;9.00;99.90
38726;DHT22;24474;48.906;8.808;2023-04-01T03:58:44;8.90;99.90
38726;DHT22;24474;48.906;8.808;2023-04-01T04:01:17;8.90;99.90
38726;DHT22;24474;48.906;8.808;2023-04-01T04:03:43;9.00;99.90
38726;DHT22;24474;48.906;8.808;2023-04-01T04:06:14;9.00;99.90
38726;DHT22;24474;48.906;8.808;2023-04-01T04:08:41;9.00;99.90
38726;DHT22;24474;48.906;8.808;2023-04-01T04:11:07;9.00;99.90
38726;DHT22;24474;48.906;8.808;2023-04-01T04:13:34;9.00;99.90
38726;DHT22;24474;48.906;8.808;2023-04-01T04:16:02;9.00;99.90
38726;DHT22;24474;48.906;8.808;2023-04-01T04:18:29;9.00;99.90
38726;DHT22;24474;48.906;8.808;2023-04-01T04:20:56;9.00;99.90
38726;DHT22;24474;48.906;8.808;2023-04-01T04:23:23;9.00;99.90
38726;DHT22;24474;48.906;8.808;2023-04-01T04:26:01;9.00;99.90
38726;DHT22;24474;48.906;8.808;2023-04-01T04:28:28;9.00;99.90
38726;DHT22;24474;48.906;8.808;2023-04-01T04:30:55;9.00;99.90
38726;DHT22;24474;48.906;8.808;2023-04-01T04:33:22;9.00;99.90
38726;DHT22;24474;48.906;8.808;2023-04-01T04:35:50;9.00;99.90
38726;DHT22;24474;48.906;8.808;2023-04-01T04:38:17;9.00;99.90
38726;DHT22;24474;48.906;8.808;2023-04-01T04:40:44;9.00;99.90
38726;DHT22;24474;48.906;8.808;2023-04-01T04:43:12;9.00;99.90
38726;DHT22;24474;48.906;8.808;2023-04-01T04:45:40;9.10;99.90
38726;DHT22;24474;48.906;8.808;2023-04-01T04:48:08;9.00;99.90
38726;DHT22;24474;48.906;8.808;2023-04-01T04:50:36;9.00;99.90
38726;DHT22;24474;48.906;8.808;2023-04-01T04:53:03;9.00;99.90
38726;DHT22;24474;48.906;8.808;2023-04-01T04:55:29;9.00;99.90
38726;DHT22;24474;48.906;8.808;2023-04-01T04:57:56;9.00;99.90
38726;DHT22;24474;48.906;8.808;2023-04-01T05:00:23;9.00;99.90
38726;DHT22;24474;48.906;8.808;2023-04-01T05:02:49;9.00;99.90
38726;DHT22;24474;48.906;8.808;2023-04-01T05:05:16;9.00;99.90
38726;DHT22;24474;48.906;8.808;2023-04-01T05:07:43;9.00;99.90
38726;DHT22;24474;48.906;8.808;2023-04-01T05:10:09;9.00;99.90
38726;DHT22;24474;48.906;8.808;2023-04-01T05:12:36;8.90;99.90
38726;DHT22;24474;48.906;8.808;2023-04-01T05:15:10;9.00;99.90
38726;DHT22;24474;48.906;8.808;2023-04-01T05:17:36;9.00;99.90
38726;DHT22;24474;48.906;8.808;2023-04-01T05:20:02;9.00;99.90
38726;DHT22;24474;48.906;8.808;2023-04-01T05:22:29;9.00;99.90
38726;DHT22;24474;48.906;8.808;2023-04-01T05:24:55;9.00;99.90
38726;DHT22;24474;48.906;8.808;2023-04-01T05:27:22;9.10;99.90
38726;DHT22;24474;48.906;8.808;2023-04-01T05:29:50;9.10;99.90
38726;DHT22;24474;48.906;8.808;2023-04-01T05:32:17;9.10;99.90
38726;DHT22;24474;48.906;8.808;2023-04-01T05:34:43;9.10;99.90
38726;DHT22;24474;48.906;8.808;2023-04-01T05:37:10;9.10;99.90
38726;DHT22;24474;48.906;8.808;2023-04-01T05:39:37;9.10;99.90
38726;DHT22;24474;48.906;8.808;2023-04-01T05:42:04;9.20;99.90
38726;DHT22;24474;48.906;8.808;2023-04-01T05:44:32;9.20;99.90
38726;DHT22;24474;48.906;8.808;2023-04-01T05:46:59;9.20;99.90
38726;DHT22;24474;48.906;8.808;2023-04-01T05:49:25;9.20;99.90
38726;DHT22;24474;48.906;8.808;2023-04-01T05:51:52;9.20;99.90
38726;DHT22;24474;48.906;8.808;2023-04-01T05:54:21;9.20;99.90
38726;DHT22;24474;48.906;8.808;2023-04-01T05:56:48;9.20;99.90
38726;DHT22;24474;48.906;8.808;2023-04-01T05:59:16;9.20;99.90
38726;DHT22;24474;48.906;8.808;2023-04-01T06:01:43;9.20;99.90
38726;DHT22;24474;48.906;8.808;2023-04-01T06:04:17;9.30;99.90
38726;DHT22;24474;48.906;8.808;2023-04-01T06:06:44;9.30;99.90
38726;DHT22;24474;48.906;8.808;2023-04-01T06:09:19;9.30;99.90
38726;DHT22;24474;48.906;8.808;2023-04-01T06:14:45;9.30;99.90
38726;DHT22;24474;48.906;8.808;2023-04-01T06:17:41;9.30;99.90
38726;DHT22;24474;48.906;8.808;2023-04-01T06:26:40;9.30;99.90
38726;DHT22;24474;48.906;8.808;2023-04-01T06:32:22;9.20;99.90
38726;DHT22;24474;48.906;8.808;2023-04-01T06:35:20;9.20;99.90
38726;DHT22;24474;48.906;8.808;2023-04-01T06:50:19;9.20;99.90
38726;DHT22;24474;48.906;8.808;2023-04-01T06:53:19;9.10;99.90
38726;DHT22;24474;48.906;8.808;2023-04-01T06:56:06;9.20;99.90
38726;DHT22;24474;48.906;8.808;2023-04-01T06:58:39;9.20;99.90
38726;DHT22;24474;48.906;8.808;2023-04-01T07:01:14;9.20;99.90
38726;DHT22;24474;48.906;8.808;2023-04-01T07:06:36;9.20;99.90
38726;DHT22;24474;48.906;8.808;2023-04-01T07:09:31;9.10;99.90
38726;DHT22;24474;48.906;8.808;2023-04-01T07:12:07;9.20;99.90
38726;DHT22;24474;48.906;8.808;2023-04-01T07:14:39;9.20;99.90
38726;DHT22;24474;48.906;8.808;2023-04-01T07:20:30;9.20;99.90
38726;DHT22;24474;48.906;8.808;2023-04-01T07:22:59;9.30;99.90
38726;DHT22;24474;48.906;8.808;2023-04-01T07:25:38;9.30;99.90
38726;DHT22;24474;48.906;8.808;2023-04-01T07:28:16;9.40;99.90
38726;DHT22;24474;48.906;8.808;2023-04-01T07:31:13;9.40;99.90
38726;DHT22;24474;48.906;8.808;2023-04-01T07:34:16;9.50;99.90
38726;DHT22;24474;48.906;8.808;2023-04-01T07:45:51;9.50;99.90
38726;DHT22;24474;48.906;8.808;2023-04-01T07:51:24;9.50;99.90
38726;DHT22;24474;48.906;8.808;2023-04-01T07:57:03;9.50;99.90
38726;DHT22;24474;48.906;8.808;2023-04-01T08:02:44;9.50;99.90
38726;DHT22;24474;48.906;8.808;2023-04-01T08:17:05;9.40;99.90
38726;DHT22;24474;48.906;8.808;2023-04-01T08:20:07;9.40;99.90
38726;DHT22;24474;48.906;8.808;2023-04-01T08:23:13;9.20;99.90
38726;DHT22;24474;48.906;8.808;2023-04-01T08:28:51;9.10;99.90
38726;DHT22;24474;48.906;8.808;2023-04-01T08:31:30;9.20;99.90
38726;DHT22;24474;48.906;8.808;2023-04-01T08:33:59;9.10;99.90
38726;DHT22;24474;48.906;8.808;2023-04-01T08:36:35;9.00;99.90
38726;DHT22;24474;48.906;8.808;2023-04-01T08:39:18;9.00;99.90
38726;DHT22;24474;48.906;8.808;2023-04-01T08:53:10;9.30;99.90
38726;DHT22;24474;48.906;8.808;2023-04-01T08:56:06;9.50;99.90
38726;DHT22;24474;48.906;8.808;2023-04-01T09:04:57;9.90;99.90
38726;DHT22;24474;48.906;8.808;2023-04-01T09:10:34;10.20;99.90
38726;DHT22;24474;48.906;8.808;2023-04-01T09:22:09;10.10;99.90
38726;DHT22;24474;48.906;8.808;2023-04-01T09:25:13;10.10;99.90
38726;DHT22;24474;48.906;8.808;2023-04-01T09:28:14;10.10;99.90
38726;DHT22;24474;48.906;8.808;2023-04-01T09:36:51;10.20;99.90
38726;DHT22;24474;48.906;8.808;2023-04-01T09:45:14;10.20;99.90
38726;DHT22;24474;48.906;8.808;2023-04-01T09:50:52;10.30;99.90
38726;DHT22;24474;48.906;8.808;2023-04-01T10:05:34;10.40;99.90
38726;DHT22;24474;48.906;8.808;2023-04-01T10:20:02;10.50;99.90
38726;DHT22;24474;48.906;8.808;2023-04-01T10:25:55;10.40;99.90
38726;DHT22;24474;48.906;8.808;2023-04-01T10:35:08;10.50;99.90
38726;DHT22;24474;48.906;8.808;2023-04-01T10:43:56;10.70;99.90
38726;DHT22;24474;48.906;8.808;2023-04-01T10:52:58;10.80;99.90
38726;DHT22;24474;48.906;8.808;2023-04-01T11:05:12;10.80;99.90
38726;DHT22;24474;48.906;8.808;2023-04-01T11:30:02;11.20;99.90
38726;DHT22;24474;48.906;8.808;2023-04-01T11:38:50;11.10;99.90
38726;DHT22;24474;48.906;8.808;2023-04-01T11:41:46;11.00;99.90
38726;DHT22;24474;48.906;8.808;2023-04-01T11:44:27;11.00;99.90
38726;DHT22;24474;48.906;8.808;2023-04-01T11:49:53;11.00;99.90
38726;DHT22;24474;48.906;8.808;2023-04-01T12:07:55;11.30;99.90
38726;DHT22;24474;48.906;8.808;2023-04-01T12:13:41;11.50;99.90
38726;DHT22;24474;48.906;8.808;2023-04-01T12:19:46;11.50;99.90
38726;DHT22;24474;48.906;8.808;2023-04-01T12:35:15;11.40;99.90
38726;DHT22;24474;48.906;8.808;2023-04-01T12:41:09;11.50;99.90
38726;DHT22;24474;48.906;8.808;2023-04-01T12:44:00;11.40;99.90
38726;DHT22;24474;48.906;8.808;2023-04-01T12:55:49;11.00;99.90
38726;DHT22;24474;48.906;8.808;2023-04-01T13:01:00;11.10;99.90
38726;DHT22;24474;48.906;8.808;2023-04-01T13:15:44;11.20;99.90
38726;DHT22;24474;48.906;8.808;2023-04-01T13:21:30;11.20;99.90
38726;DHT22;24474;48.906;8.808;2023-04-01T13:24:28;11.10;99.90
38726;DHT22;24474;48.906;8.808;2023-04-01T13:36:03;10.90;99.90
38726;DHT22;24474;48.906;8.808;2023-04-01T13:44:51;11.00;99.90
38726;DHT22;24474;48.906;8.808;2023-04-01T13:47:27;11.00;99.90
38726;DHT22;24474;48.906;8.808;2023-04-01T13:53:04;11.10;99.90
38726;DHT22;24474;48.906;8.808;2023-04-01T14:04:44;10.80;99.90
38726;DHT22;24474;48.906;8.808;2023-04-01T14:07:23;10.80;99.90
38726;DHT22;24474;48.906;8.808;2023-04-01T14:13:03;10.60;99.90
38726;DHT22;24474;48.906;8.808;2023-04-01T14:15:50;10.50;99.90
38726;DHT22;24474;48.906;8.808;2023-04-01T14:18:47;10.50;99.90
38726;DHT22;24474;48.906;8.808;2023-04-01T14:26:54;10.60;99.90
38726;DHT22;24474;48.906;8.808;2023-04-01T14:35:25;10.50;99.90
38726;DHT22;24474;48.906;8.808;2023-04-01T14:38:29;10.60;99.90
38726;DHT22;24474;48.906;8.808;2023-04-01T14:41:16;10.70;99.90
38726;DHT22;24474;48.906;8.808;2023-04-01T14:46:51;10.70;99.90
38726;DHT22;24474;48.906;8.808;2023-04-01T14:49:46;10.70;99.90
38726;DHT22;24474;48.906;8.808;2023-04-01T14:52:31;10.70;99.90
38726;DHT22;24474;48.906;8.808;2023-04-01T14:55:01;10.70;99.90
38726;DHT22;24474;48.906;8.808;2023-04-01T14:57:36;10.70;99.90
38726;DHT22;24474;48.906;8.808;2023-04-01T15:00:20;10.70;99.90
38726;DHT22;24474;48.906;8.808;2023-04-01T15:03:04;10.70;99.90
38726;DHT22;24474;48.906;8.808;2023-04-01T15:06:08;10.70;99.90
38726;DHT22;24474;48.906;8.808;2023-04-01T15:20:55;10.60;99.90
38726;DHT22;24474;48.906;8.808;2023-04-01T15:37:49;10.60;99.90
38726;DHT22;24474;48.906;8.808;2023-04-01T15:49:37;10.60;99.90
38726;DHT22;24474;48.906;8.808;2023-04-01T15:55:11;10.60;99.90
38726;DHT22;24474;48.906;8.808;2023-04-01T16:03:51;10.60;99.90
38726;DHT22;24474;48.906;8.808;2023-04-01T16:20:20;10.50;99.90
38726;DHT22;24474;48.906;8.808;2023-04-01T16:22:58;10.50;99.90
38726;DHT22;24474;48.906;8.808;2023-04-01T16:25:52;10.50;99.90
38726;DHT22;24474;48.906;8.808;2023-04-01T16:31:34;10.50;99.90
38726;DHT22;24474;48.906;8.808;2023-04-01T16:37:17;10.40;99.90
38726;DHT22;24474;48.906;8.808;2023-04-01T16:43:04;10.40;99.90
38726;DHT22;24474;48.906;8.808;2023-04-01T16:45:43;10.40;99.90
38726;DHT22;24474;48.906;8.808;2023-04-01T16:48:15;10.40;99.90
38726;DHT22;24474;48.906;8.808;2023-04-01T16:51:09;10.40;99.90
38726;DHT22;24474;48.906;8.808;2023-04-01T16:53:48;10.40;99.90
38726;DHT22;24474;48.906;8.808;2023-04-01T16:56:28;10.40;99.90
38726;DHT22;24474;48.906;8.808;2023-04-01T16:59:36;10.50;99.90
38726;DHT22;24474;48.906;8.808;2023-04-01T17:02:25;10.40;99.90
38726;DHT22;24474;48.906;8.808;2023-04-01T17:05:08;10.40;99.90
38726;DHT22;24474;48.906;8.808;2023-04-01T17:11:13;10.40;99.90
38726;DHT22;24474;48.906;8.808;2023-04-01T17:16:47;10.30;99.90
38726;DHT22;24474;48.906;8.808;2023-04-01T17:24:54;10.10;99.90
38726;DHT22;24474;48.906;8.808;2023-04-01T17:27:55;10.10;99.90
38726;DHT22;24474;48.906;8.808;2023-04-01T17:33:34;9.90;99.90
38726;DHT22;24474;48.906;8.808;2023-04-01T17:42:37;9.70;99.90
38726;DHT22;24474;48.906;8.808;2023-04-01T17:45:21;9.60;99.90
38726;DHT22;24474;48.906;8.808;2023-04-01T17:48:37;9.60;99.90
38726;DHT22;24474;48.906;8.808;2023-04-01T17:51:24;9.50;99.90
38726;DHT22;24474;48.906;8.808;2023-04-01T17:54:21;9.50;99.90
38726;DHT22;24474;48.906;8.808;2023-04-01T17:56:56;9.50;99.90
38726;DHT22;24474;48.906;8.808;2023-04-01T17:59:36;9.50;99.90
38726;DHT22;24474;48.906;8.808;2023-04-01T18:05:12;9.40;99.90
38726;DHT22;24474;48.906;8.808;2023-04-01T18:25:22;9.20;99.90
38726;DHT22;24474;48.906;8.808;2023-04-01T18:30:56;9.20;99.90
38726;DHT22;24474;48.906;8.808;2023-04-01T18:33:25;9.20;99.90
38726;DHT22;24474;48.906;8.808;2023-04-01T18:36:15;9.20;99.90
38726;DHT22;24474;48.906;8.808;2023-04-01T18:44:48;9.10;99.90
38726;DHT22;24474;48.906;8.808;2023-04-01T18:50:36;9.10;99.90
38726;DHT22;24474;48.906;8.808;2023-04-01T18:56:15;9.00;99.90
38726;DHT22;24474;48.906;8.808;2023-04-01T19:07:52;8.90;99.90
38726;DHT22;24474;48.906;8.808;2023-04-01T19:19:45;8.80;99.90
38726;DHT22;24474;48.906;8.808;2023-04-01T19:25:07;8.80;99.90
38726;DHT22;24474;48.906;8.808;2023-04-01T19:27:48;8.80;99.90
38726;DHT22;24474;48.906;8.808;2023-04-01T19:30:47;8.70;99.90
38726;DHT22;24474;48.906;8.808;2023-04-01T19:36:59;8.80;99.90
38726;DHT22;24474;48.906;8.808;2023-04-01T19:45:34;8.80;99.90
38726;DHT22;24474;48.906;8.808;2023-04-01T19:53:54;8.80;99.90
38726;DHT22;24474;48.906;8.808;2023-04-01T19:56:34;8.80;99.90
38726;DHT22;24474;48.906;8.808;2023-04-01T20:02:32;8.80;99.90
38726;DHT22;24474;48.906;8.808;2023-04-01T20:05:15;8.90;99.90
38726;DHT22;24474;48.906;8.808;2023-04-01T20:07:57;8.90;99.90
38726;DHT22;24474;48.906;8.808;2023-04-01T20:14:09;8.90;99.90
38726;DHT22;24474;48.906;8.808;2023-04-01T20:25:32;8.80;99.90
38726;DHT22;24474;48.906;8.808;2023-04-01T20:28:25;8.80;99.90
38726;DHT22;24474;48.906;8.808;2023-04-01T20:34:19;8.80;99.90
38726;DHT22;24474;48.906;8.808;2023-04-01T20:37:15;8.70;99.90
38726;DHT22;24474;48.906;8.808;2023-04-01T20:46:30;8.70;99.90
38726;DHT22;24474;48.906;8.808;2023-04-01T20:51:59;8.80;99.90
38726;DHT22;24474;48.906;8.808;2023-04-01T20:55:05;8.70;99.90
38726;DHT22;24474;48.906;8.808;2023-04-01T20:58:09;8.70;99.90
38726;DHT22;24474;48.906;8.808;2023-04-01T21:04:17;8.70;99.90
38726;DHT22;24474;48.906;8.808;2023-04-01T21:32:44;8.80;99.90
38726;DHT22;24474;48.906;8.808;2023-04-01T21:35:53;8.80;99.90
38726;DHT22;24474;48.906;8.808;2023-04-01T21:38:43;8.80;99.90
38726;DHT22;24474;48.906;8.808;2023-04-01T21:50:41;8.80;99.90
38726;DHT22;24474;48.906;8.808;2023-04-01T22:07:25;8.80;99.90
38726;DHT22;24474;48.906;8.808;2023-04-01T22:13:13;8.80;99.90
38726;DHT22;24474;48.906;8.808;2023-04-01T22:24:56;8.80;99.90
38726;DHT22;24474;48.906;8.808;2023-04-01T22:27:31;8.80;99.90
38726;DHT22;24474;48.906;8.808;2023-04-01T22:30:32;8.80;99.90
38726;DHT22;24474;48.906;8.808;2023-04-01T22:33:11;8.80;99.90
38726;DHT22;24474;48.906;8.808;2023-04-01T22:38:48;8.80;99.90
38726;DHT22;24474;48.906;8.808;2023-04-01T22:41:49;8.80;99.90
38726;DHT22;24474;48.906;8.808;2023-04-01T22:56:44;8.80;99.90
38726;DHT22;24474;48.906;8.808;2023-04-01T22:59:39;8.80;99.90
38726;DHT22;24474;48.906;8.808;2023-04-01T23:02:39;8.80;99.90
38726;DHT22;24474;48.906;8.808;2023-04-01T23:05:13;8.80;99.90
38726;DHT22;24474;48.906;8.808;2023-04-01T23:11:03;8.80;99.90
38726;DHT22;24474;48.906;8.808;2023-04-01T23:14:04;8.80;99.90
38726;DHT22;24474;48.906;8.808;2023-04-01T23:16:41;8.80;99.90
38726;DHT22;24474;48.906;8.808;2023-04-01T23:33:32;8.80;99.90
38726;DHT22;24474;48.906;8.808;2023-04-01T23:36:14;8.90;99.90
38726;DHT22;24474;48.906;8.808;2023-04-01T23:38:47;8.80;99.90
38726;DHT22;24474;48.906;8.808;2023-04-01T23:43:57;8.90;99.90
38726;DHT22;24474;48.906;8.808;2023-04-01T23:46:24;8.90;99.90
38726;DHT22;24474;48.906;8.808;2023-04-01T23:48:52;8.90;99.90
38726;DHT22;24474;48.906;8.808;2023-04-01T23:51:37;8.90;99.90
38726;DHT22;24474;48.906;8.808;2023-04-01T23:56:57;8.90;99.90
38726;DHT22;24474;48.906;8.808;2023-04-01T23:59:35;8.90;99.90
